Archival Weather

Tokyo Intl

Tokyo, Japan (RJTT)

Report from: Tuesday, November 21, 2023 12:00 PM JST
Current time: Sunday, February 25, 2024 1:51 AM JST

Current weather – Weather history – Daily summaries
Weather forecast

Temperature13.0°C (55.4°F)
Dew point4.0°C (39.2°F)
Winds 3 kts (1.5 m/s, 3.5 mph) Vrb
Winds variableWinds variable from Northeast (40°) to East (100°)
Visibility6.2 mi. (10 km)
Clouds Few clouds 3,000 ft. (914 m)
Altimeter30.18 in.Hg (1022 mB)
Relative humidity54 %
Density altitude-412 ft. (-126 m)
Remarks No significant changes expected in the next two hours
Flight conditions Visual Meteorological Conditions
Raw dataRJTT 210300Z 07003KT 040V100 9999 FEW030 13/04 Q1022 NOSIG RMK 1CU030 A3020
An error has occurred. This application may no longer respond until reloaded. Reload 🗙